createdAt,value
2018-07-10T00:02:29.725Z,3.13
2018-07-10T00:05:10.329Z,5.30
2018-07-10T00:07:57.610Z,4.60
2018-07-10T00:11:33.026Z,3.50
2018-07-10T00:14:01.871Z,5.23
2018-07-10T00:16:30.748Z,5.30
2018-07-10T00:18:59.530Z,3.33
2018-07-10T00:21:28.028Z,3.77
2018-07-10T00:23:56.767Z,3.13
2018-07-10T00:26:25.562Z,2.73
2018-07-10T00:28:54.446Z,4.93
2018-07-10T00:31:23.264Z,4.43
2018-07-10T00:33:52.126Z,4.50
2018-07-10T00:36:20.913Z,3.30
2018-07-10T00:38:57.453Z,3.97
2018-07-10T00:41:28.506Z,4.23
2018-07-10T00:43:58.029Z,3.50
2018-07-10T00:46:28.813Z,3.93
2018-07-10T00:48:57.645Z,5.00
2018-07-10T00:51:27.025Z,5.20
2018-07-10T00:53:56.300Z,5.20
2018-07-10T00:56:25.073Z,2.63
2018-07-10T00:58:54.716Z,2.67
2018-07-10T01:01:23.824Z,2.57
2018-07-10T01:03:52.674Z,3.27
2018-07-10T01:06:22.041Z,3.53
2018-07-10T01:08:51.198Z,4.30
2018-07-10T01:11:20.785Z,3.00
2018-07-10T01:13:50.132Z,3.00
2018-07-10T01:16:22.802Z,4.33
2018-07-10T01:18:54.425Z,3.27
2018-07-10T01:21:24.257Z,3.67
2018-07-10T01:23:56.968Z,5.73
2018-07-10T01:26:26.552Z,3.37
2018-07-10T01:28:56.179Z,2.80
2018-07-10T01:31:25.068Z,4.50
2018-07-10T01:33:53.857Z,2.30
2018-07-10T01:36:22.622Z,4.27
2018-07-10T01:38:51.472Z,3.53
2018-07-10T01:41:20.223Z,3.63
2018-07-10T01:43:49.128Z,7.17
2018-07-10T01:46:17.903Z,4.87
2018-07-10T01:48:46.730Z,4.03
2018-07-10T01:51:15.504Z,3.70
2018-07-10T01:53:44.280Z,3.53
2018-07-10T01:56:13.057Z,2.80
2018-07-10T01:58:41.853Z,2.57
2018-07-10T02:01:10.379Z,4.80
2018-07-10T02:03:39.136Z,3.13
2018-07-10T02:06:09.177Z,2.60
2018-07-10T02:08:38.401Z,5.07
2018-07-10T02:11:07.208Z,4.00
2018-07-10T02:13:35.987Z,3.93
2018-07-10T02:16:04.785Z,2.83
2018-07-10T02:18:33.533Z,4.87
2018-07-10T02:21:07.545Z,3.53
2018-07-10T02:23:42.139Z,6.73
2018-07-10T02:26:14.476Z,5.47
2018-07-10T02:28:43.426Z,3.93
2018-07-10T02:31:12.191Z,8.43
2018-07-10T02:33:41.011Z,2.80
2018-07-10T02:36:09.804Z,5.77
2018-07-10T02:38:40.424Z,3.20
2018-07-10T02:41:10.771Z,3.30
2018-07-10T02:43:39.981Z,3.70
2018-07-10T02:46:08.987Z,7.80
2018-07-10T02:48:37.765Z,4.00
2018-07-10T02:51:07.430Z,2.70
2018-07-10T02:53:40.052Z,4.90
2018-07-10T02:56:11.109Z,4.90
2018-07-10T02:58:39.883Z,3.00
2018-07-10T03:01:08.637Z,4.37
2018-07-10T03:03:38.909Z,5.47
2018-07-10T03:06:07.689Z,2.67
2018-07-10T03:08:36.608Z,6.17
2018-07-10T03:11:05.803Z,4.00
2018-07-10T03:13:35.180Z,5.37
2018-07-10T03:16:03.982Z,2.63
2018-07-10T03:18:33.049Z,4.10
2018-07-10T03:21:01.840Z,2.93
2018-07-10T03:23:30.613Z,3.77
2018-07-10T03:25:59.385Z,5.53
2018-07-10T03:28:28.224Z,4.53
2018-07-10T03:30:57.000Z,3.90
2018-07-10T03:33:25.544Z,6.77
2018-07-10T03:35:54.251Z,4.43
2018-07-10T03:38:23.289Z,6.17
2018-07-10T03:40:52.128Z,3.67
2018-07-10T03:43:20.877Z,4.20
2018-07-10T03:45:49.480Z,2.67
2018-07-10T03:48:18.574Z,4.00
2018-07-10T03:50:47.412Z,3.07
2018-07-10T03:53:16.207Z,4.90
2018-07-10T03:55:44.977Z,3.80
2018-07-10T03:58:13.775Z,3.60
2018-07-10T04:00:42.532Z,3.37
2018-07-10T04:03:11.452Z,3.77
2018-07-10T04:05:40.268Z,3.47
2018-07-10T04:08:09.977Z,5.70
2018-07-10T04:10:38.786Z,4.13
2018-07-10T04:13:12.737Z,3.77
2018-07-10T04:15:43.052Z,4.00
2018-07-10T04:18:13.368Z,3.83
2018-07-10T04:20:54.257Z,2.80
2018-07-10T04:23:23.412Z,6.10
2018-07-10T04:25:53.869Z,4.03
2018-07-10T04:28:38.521Z,7.63
2018-07-10T04:31:22.077Z,2.90
2018-07-10T04:33:50.860Z,3.60
2018-07-10T04:36:19.908Z,5.23
2018-07-10T04:38:55.280Z,5.00
2018-07-10T04:41:28.753Z,4.90
2018-07-10T04:44:06.984Z,4.90
2018-07-10T04:46:38.557Z,2.77
2018-07-10T04:49:30.434Z,4.67
2018-07-10T04:52:05.890Z,3.73
2018-07-10T04:54:51.400Z,4.20
2018-07-10T04:57:25.203Z,5.00
2018-07-10T04:59:53.990Z,2.87
2018-07-10T05:02:23.316Z,5.23
2018-07-10T05:04:52.145Z,6.40
2018-07-10T05:07:21.436Z,3.40
2018-07-10T05:09:50.225Z,2.73
2018-07-10T05:12:19.040Z,4.00
2018-07-10T05:14:49.866Z,5.00
2018-07-10T05:17:18.630Z,3.67
2018-07-10T05:19:48.015Z,6.23
2018-07-10T05:22:17.396Z,2.63
2018-07-10T05:24:46.581Z,6.93
2018-07-10T05:27:15.885Z,5.67
2018-07-10T05:29:45.436Z,4.27
2018-07-10T05:32:14.349Z,5.00
2018-07-10T05:34:43.115Z,4.23
2018-07-10T05:37:17.073Z,4.53
2018-07-10T05:39:46.345Z,4.57
2018-07-10T05:42:15.127Z,4.27
2018-07-10T05:44:45.689Z,5.67
2018-07-10T05:47:14.553Z,3.37
2018-07-10T05:49:43.468Z,4.70
2018-07-10T05:52:12.621Z,3.93
2018-07-10T05:54:42.984Z,3.97
2018-07-10T05:57:11.752Z,3.07
2018-07-10T05:59:40.517Z,3.73
2018-07-10T06:02:09.332Z,4.67
2018-07-10T06:04:39.060Z,5.10
2018-07-10T06:07:07.873Z,4.30
2018-07-10T06:09:36.664Z,9.60
2018-07-10T06:12:05.429Z,4.57
2018-07-10T06:14:34.206Z,3.40
2018-07-10T06:17:03.004Z,5.87
2018-07-10T06:19:32.209Z,6.30
2018-07-10T06:22:01.144Z,4.60
2018-07-10T06:24:30.313Z,4.67
2018-07-10T06:27:00.582Z,7.87
2018-07-10T06:30:05.757Z,4.73
2018-07-10T06:32:53.340Z,4.77
2018-07-10T06:35:34.732Z,5.67
2018-07-10T06:38:06.423Z,4.57
2018-07-10T06:40:35.192Z,5.57
2018-07-10T06:43:04.976Z,4.97
2018-07-10T06:45:33.793Z,3.40
2018-07-10T06:48:03.049Z,3.83
2018-07-10T06:50:34.352Z,3.60
2018-07-10T06:53:03.389Z,5.40
2018-07-10T06:55:40.218Z,3.13
2018-07-10T06:58:09.001Z,3.87
2018-07-10T07:00:37.785Z,7.10
2018-07-10T07:03:06.586Z,3.93
2018-07-10T07:05:35.344Z,5.93
2018-07-10T07:08:04.350Z,3.00
2018-07-10T07:10:33.082Z,5.10
2018-07-10T07:13:01.858Z,6.57
2018-07-10T07:15:30.654Z,4.77
2018-07-10T07:17:59.451Z,3.83
2018-07-10T07:20:28.196Z,4.47
2018-07-10T07:22:57.065Z,6.07
2018-07-10T07:25:25.857Z,8.30
2018-07-10T07:27:54.666Z,5.40
2018-07-10T07:30:23.545Z,4.63
2018-07-10T07:32:52.352Z,4.63
2018-07-10T07:35:21.112Z,7.27
2018-07-10T07:37:49.865Z,6.47
2018-07-10T07:40:18.648Z,4.40
2018-07-10T07:42:47.427Z,7.57
2018-07-10T07:45:16.208Z,8.60
2018-07-10T07:47:44.989Z,7.23
2018-07-10T07:50:13.773Z,4.70
2018-07-10T07:52:42.552Z,7.43
2018-07-10T07:55:12.472Z,4.33
2018-07-10T07:57:41.229Z,6.07
2018-07-10T08:00:10.009Z,4.00
2018-07-10T08:02:38.807Z,7.20
2018-07-10T08:05:07.622Z,6.73
2018-07-10T08:07:36.406Z,5.63
2018-07-10T08:10:05.211Z,5.67
2018-07-10T08:12:33.963Z,6.70
2018-07-10T08:15:03.600Z,7.60
2018-07-10T08:17:36.097Z,5.60
2018-07-10T08:20:05.653Z,5.83
2018-07-10T08:22:34.461Z,9.43
2018-07-10T08:25:04.661Z,8.03
2018-07-10T08:27:35.926Z,7.27
2018-07-10T08:30:04.720Z,10.43
2018-07-10T08:32:33.483Z,8.63
2018-07-10T08:35:02.289Z,6.83
2018-07-10T08:37:31.161Z,8.33
2018-07-10T08:40:00.080Z,8.73
2018-07-10T08:42:28.840Z,8.43
2018-07-10T08:44:57.673Z,9.20
2018-07-10T08:47:26.470Z,7.43
2018-07-10T08:49:55.265Z,9.00
2018-07-10T08:52:24.774Z,9.33
2018-07-10T08:54:53.533Z,9.00
2018-07-10T08:57:22.288Z,8.17
2018-07-10T08:59:51.187Z,8.50
2018-07-10T09:02:19.952Z,8.43
2018-07-10T09:04:48.752Z,7.50
2018-07-10T09:07:17.561Z,7.83
2018-07-10T09:09:46.347Z,12.20
2018-07-10T09:12:15.117Z,8.33
2018-07-10T09:14:43.908Z,7.60
2018-07-10T09:17:12.697Z,7.90
2018-07-10T09:19:41.809Z,7.33
2018-07-10T09:22:12.222Z,11.90
2018-07-10T09:24:56.808Z,8.30
2018-07-10T09:27:25.575Z,9.17
2018-07-10T09:29:54.424Z,7.57
2018-07-10T09:32:28.453Z,7.37
2018-07-10T09:34:58.404Z,9.17
2018-07-10T09:37:35.075Z,10.87
2018-07-10T09:40:09.262Z,11.23
2018-07-10T09:42:42.345Z,9.00
2018-07-10T09:45:11.119Z,8.80
2018-07-10T09:47:39.874Z,8.00
2018-07-10T09:50:08.653Z,10.87
2018-07-10T09:52:37.404Z,9.30
2018-07-10T09:55:06.297Z,8.90
2018-07-10T09:57:34.955Z,7.90
2018-07-10T10:00:04.149Z,14.37
2018-07-10T10:02:34.205Z,9.73
2018-07-10T10:05:04.629Z,8.77
2018-07-10T10:07:33.400Z,8.90
2018-07-10T10:10:03.158Z,8.37
2018-07-10T10:12:32.534Z,10.97
2018-07-10T10:15:01.412Z,7.20
2018-07-10T10:17:30.633Z,7.67
2018-07-10T10:19:59.917Z,7.13
2018-07-10T10:22:30.977Z,8.47
2018-07-10T10:25:00.635Z,8.20
2018-07-10T10:27:30.191Z,7.00
2018-07-10T10:29:59.889Z,6.87
2018-07-10T10:32:28.864Z,6.43
2018-07-10T10:34:57.777Z,4.90
2018-07-10T10:37:26.848Z,4.50
2018-07-10T10:39:55.947Z,6.47
2018-07-10T10:42:26.221Z,4.37
2018-07-10T10:44:57.205Z,6.53
2018-07-10T10:47:25.975Z,5.47
2018-07-10T10:49:55.793Z,3.40
2018-07-10T10:52:25.423Z,3.30
2018-07-10T10:54:54.309Z,4.63
2018-07-10T10:57:25.046Z,3.40
2018-07-10T10:59:53.804Z,3.87
2018-07-10T11:02:22.651Z,3.60
2018-07-10T11:04:52.643Z,5.03
2018-07-10T11:07:21.864Z,3.63
2018-07-10T11:09:50.798Z,3.70
2018-07-10T11:12:21.568Z,5.40
2018-07-10T11:14:50.437Z,6.17
2018-07-10T11:17:25.609Z,7.53
2018-07-10T11:20:02.026Z,7.10
2018-07-10T11:22:30.853Z,10.73
2018-07-10T11:25:05.583Z,23.20
2018-07-10T11:28:08.214Z,11.87
2018-07-10T11:30:37.357Z,12.53
2018-07-10T11:33:07.396Z,12.20
2018-07-10T11:35:36.673Z,15.10
2018-07-10T11:38:10.495Z,14.57
2018-07-10T11:40:45.102Z,15.57
2018-07-10T11:43:14.076Z,14.27
2018-07-10T11:45:42.879Z,15.07
2018-07-10T11:48:11.661Z,16.43
2018-07-10T11:50:40.520Z,14.03
2018-07-10T11:53:09.309Z,16.13
2018-07-10T11:55:38.088Z,15.77
2018-07-10T11:58:07.656Z,16.23
2018-07-10T12:00:37.009Z,17.03
2018-07-10T12:03:06.420Z,15.17
2018-07-10T12:05:36.044Z,15.27
2018-07-10T12:08:05.016Z,15.43
2018-07-10T12:10:35.077Z,14.23
2018-07-10T12:13:03.902Z,13.27
2018-07-10T12:15:32.639Z,13.23
2018-07-10T12:18:01.869Z,14.67
2018-07-10T12:20:35.857Z,16.60
2018-07-10T12:23:05.356Z,14.60
2018-07-10T12:25:36.396Z,14.20
2018-07-10T12:28:06.337Z,15.50
2018-07-10T12:30:35.108Z,14.00
2018-07-10T12:33:04.285Z,16.07
2018-07-10T12:35:33.057Z,12.83
2018-07-10T12:38:01.838Z,13.97
2018-07-10T12:40:31.083Z,13.77
2018-07-10T12:42:59.925Z,15.43
2018-07-10T12:45:28.727Z,14.07
2018-07-10T12:47:58.231Z,13.13
2018-07-10T12:50:27.429Z,13.67
2018-07-10T12:52:56.234Z,13.13
2018-07-10T12:55:26.256Z,13.63
2018-07-10T12:57:55.640Z,12.87
2018-07-10T13:00:26.255Z,13.20
2018-07-10T13:02:55.463Z,12.97
2018-07-10T13:05:27.265Z,12.83
2018-07-10T13:07:55.808Z,16.27
2018-07-10T13:10:24.476Z,12.73
2018-07-10T13:12:53.257Z,13.83
2018-07-10T13:15:22.131Z,14.50
2018-07-10T13:17:51.396Z,12.27
2018-07-10T13:20:20.580Z,11.57
2018-07-10T13:22:49.739Z,12.33
2018-07-10T13:25:18.552Z,11.83
2018-07-10T13:27:47.894Z,11.30
2018-07-10T13:30:16.669Z,12.47
2018-07-10T13:32:45.455Z,12.10
2018-07-10T13:35:14.245Z,12.73
2018-07-10T13:37:44.627Z,11.50
2018-07-10T13:40:13.421Z,11.47
2018-07-10T13:42:51.869Z,16.00
2018-07-10T13:45:21.595Z,12.17
2018-07-10T13:47:50.772Z,12.17
2018-07-10T13:50:22.507Z,10.83
2018-07-10T13:52:51.656Z,11.93
2018-07-10T13:55:20.452Z,12.90
2018-07-10T13:57:55.028Z,12.03
2018-07-10T14:00:23.780Z,10.67
2018-07-10T14:02:53.473Z,10.73
2018-07-10T14:05:24.279Z,11.63
2018-07-10T14:07:53.119Z,11.07
2018-07-10T14:10:22.459Z,10.57
2018-07-10T14:12:51.242Z,10.27
2018-07-10T14:15:20.054Z,10.90
2018-07-10T14:17:49.400Z,10.80
2018-07-10T14:20:18.166Z,10.67
2018-07-10T14:22:46.945Z,10.90
2018-07-10T14:25:15.723Z,10.93
2018-07-10T14:27:44.486Z,10.63
2018-07-10T14:30:13.270Z,10.30
2018-07-10T14:32:42.056Z,10.67
2018-07-10T14:35:10.946Z,11.63
2018-07-10T14:37:39.757Z,10.80
2018-07-10T14:40:08.541Z,10.73
2018-07-10T14:42:37.644Z,11.77
2018-07-10T14:45:07.075Z,10.70
2018-07-10T14:47:36.943Z,11.93
2018-07-10T14:50:05.733Z,11.20
2018-07-10T14:52:34.493Z,11.33
2018-07-10T14:55:03.286Z,12.70
2018-07-10T14:57:32.091Z,13.67
2018-07-10T15:00:00.889Z,11.63
2018-07-10T15:02:30.273Z,11.17
2018-07-10T15:04:59.064Z,12.50
2018-07-10T15:07:27.855Z,10.67
2018-07-10T15:09:56.653Z,9.93
2018-07-10T15:12:25.424Z,10.50
2018-07-10T15:14:54.366Z,10.00
2018-07-10T15:17:28.513Z,11.03
2018-07-10T15:19:57.288Z,11.23
2018-07-10T15:22:26.026Z,10.73
2018-07-10T15:24:54.858Z,11.27
2018-07-10T15:27:23.584Z,11.63
2018-07-10T15:29:52.363Z,11.07
2018-07-10T15:32:21.137Z,12.40
2018-07-10T15:34:49.944Z,11.63
2018-07-10T15:37:18.837Z,9.10
2018-07-10T15:39:47.624Z,10.30
2018-07-10T15:42:16.414Z,10.20
2018-07-10T15:44:45.189Z,10.07
2018-07-10T15:47:13.966Z,8.53
2018-07-10T15:49:42.737Z,7.93
2018-07-10T15:52:11.520Z,8.03
2018-07-10T15:54:40.556Z,7.53
2018-07-10T15:57:09.324Z,8.33
2018-07-10T15:59:38.198Z,6.43
2018-07-10T16:02:07.004Z,6.73
2018-07-10T16:04:35.781Z,6.00
2018-07-10T16:07:04.630Z,5.77
2018-07-10T16:09:33.440Z,7.77
2018-07-10T16:12:03.464Z,7.83
2018-07-10T16:14:32.563Z,7.10
2018-07-10T16:17:06.896Z,6.03
2018-07-10T16:19:41.320Z,5.33
2018-07-10T16:22:16.103Z,5.90
2018-07-10T16:24:49.364Z,7.23
2018-07-10T16:27:20.201Z,5.90
2018-07-10T16:29:48.987Z,5.37
2018-07-10T16:32:17.880Z,7.37
2018-07-10T16:34:46.665Z,7.80
2018-07-10T16:37:17.511Z,6.53
2018-07-10T16:39:52.107Z,5.77
2018-07-10T16:42:29.315Z,5.30
2018-07-10T16:44:59.171Z,4.87
2018-07-10T16:47:36.341Z,4.00
2018-07-10T16:50:06.477Z,5.87
2018-07-10T16:52:45.558Z,16.03
2018-07-10T16:55:14.373Z,9.80
2018-07-10T16:57:43.544Z,5.23
2018-07-10T17:00:12.313Z,3.77
2018-07-10T17:02:41.112Z,5.37
2018-07-10T17:05:09.900Z,3.77
2018-07-10T17:07:38.672Z,4.50
2018-07-10T17:10:08.598Z,4.97
2018-07-10T17:12:37.416Z,3.77
2018-07-10T17:15:06.241Z,4.97
2018-07-10T17:17:35.020Z,4.10
2018-07-10T17:20:03.856Z,3.47
2018-07-10T17:22:32.616Z,5.87
2018-07-10T17:25:01.454Z,3.30
2018-07-10T17:27:32.236Z,4.17
2018-07-10T17:30:02.095Z,3.67
2018-07-10T17:32:31.277Z,5.63
2018-07-10T17:35:00.456Z,3.10
2018-07-10T17:37:29.887Z,3.03
2018-07-10T17:40:01.492Z,3.00
2018-07-10T17:42:30.503Z,2.97
2018-07-10T17:44:59.316Z,3.77
2018-07-10T17:47:28.184Z,3.40
2018-07-10T17:49:57.005Z,3.07
2018-07-10T17:52:25.873Z,2.23
2018-07-10T17:54:54.658Z,2.67
2018-07-10T17:57:23.460Z,2.40
2018-07-10T17:59:54.892Z,3.60
2018-07-10T18:02:23.676Z,5.60
2018-07-10T18:04:52.428Z,2.53
2018-07-10T18:07:21.215Z,5.20
2018-07-10T18:09:49.760Z,3.17
2018-07-10T18:12:18.552Z,4.07
2018-07-10T18:14:47.319Z,6.27
2018-07-10T18:17:16.085Z,4.23
2018-07-10T18:19:44.858Z,3.90
2018-07-10T18:22:13.679Z,4.77
2018-07-10T18:24:42.428Z,5.27
2018-07-10T18:27:11.207Z,2.90
2018-07-10T18:29:39.963Z,2.83
2018-07-10T18:32:08.759Z,9.87
2018-07-10T18:34:38.441Z,2.60
2018-07-10T18:37:07.287Z,2.37
2018-07-10T18:39:36.104Z,2.43
2018-07-10T18:42:04.959Z,6.07
2018-07-10T18:44:33.709Z,3.07
2018-07-10T18:47:02.474Z,2.63
2018-07-10T18:49:31.255Z,6.30
2018-07-10T18:52:00.317Z,4.70
2018-07-10T18:54:36.244Z,2.80
2018-07-10T18:57:12.136Z,4.50
2018-07-10T18:59:41.381Z,4.93
2018-07-10T19:02:21.103Z,2.13
2018-07-10T19:04:53.847Z,5.93
2018-07-10T19:07:22.665Z,3.47
2018-07-10T19:09:51.483Z,6.90
2018-07-10T19:12:20.224Z,3.67
2018-07-10T19:14:49.008Z,4.57
2018-07-10T19:17:28.041Z,3.43
2018-07-10T19:20:07.756Z,3.13
2018-07-10T19:24:48.277Z,2.53
2018-07-10T19:27:27.878Z,4.67
2018-07-10T19:29:57.252Z,6.73
2018-07-10T19:32:26.197Z,4.03
2018-07-10T19:34:59.213Z,2.83
2018-07-10T19:37:29.580Z,3.47
2018-07-10T19:39:58.416Z,5.83
2018-07-10T19:42:28.209Z,6.77
2018-07-10T19:44:57.001Z,5.30
2018-07-10T19:47:26.160Z,4.97
2018-07-10T19:49:55.957Z,2.27
2018-07-10T19:52:24.887Z,5.30
2018-07-10T19:54:54.463Z,3.17
2018-07-10T19:57:33.684Z,2.83
2018-07-10T20:00:02.505Z,2.40
2018-07-10T20:02:31.332Z,5.20
2018-07-10T20:05:07.169Z,3.87
2018-07-10T20:07:39.383Z,4.30
2018-07-10T20:10:16.358Z,4.23
2018-07-10T20:12:50.396Z,2.53
2018-07-10T20:15:36.798Z,6.43
2018-07-10T20:18:15.410Z,2.67
2018-07-10T20:20:58.863Z,4.37
2018-07-10T20:23:39.102Z,3.40
2018-07-10T20:26:12.886Z,3.27
2018-07-10T20:28:51.132Z,3.73
2018-07-10T20:31:27.619Z,6.17
2018-07-10T20:35:02.864Z,3.57
2018-07-10T20:37:31.772Z,3.47
2018-07-10T20:40:00.544Z,3.23
2018-07-10T20:42:37.790Z,3.23
2018-07-10T20:45:07.788Z,5.37
2018-07-10T20:47:50.993Z,2.57
2018-07-10T20:50:44.788Z,2.27
2018-07-10T20:53:20.436Z,2.23
2018-07-10T20:55:56.582Z,2.03
2018-07-10T20:58:30.086Z,7.47
2018-07-10T21:01:02.933Z,3.57
2018-07-10T21:03:43.144Z,2.23
2018-07-10T21:06:20.636Z,3.80
2018-07-10T21:08:56.404Z,3.10
2018-07-10T21:11:27.890Z,2.30
2018-07-10T21:14:03.573Z,3.70
2018-07-10T21:16:42.480Z,3.97
2018-07-10T21:19:22.771Z,2.33
2018-07-10T21:22:01.788Z,3.17
2018-07-10T21:24:47.886Z,3.53
2018-07-10T21:27:29.368Z,4.80
2018-07-10T21:32:13.755Z,3.53
2018-07-10T21:34:45.501Z,2.63
2018-07-10T21:39:29.881Z,3.67
2018-07-10T21:42:13.492Z,3.87
2018-07-10T21:44:53.751Z,3.73
2018-07-10T21:47:40.740Z,4.40
2018-07-10T21:50:12.016Z,3.30
2018-07-10T21:52:40.828Z,2.43
2018-07-10T21:55:11.268Z,6.03
2018-07-10T21:57:41.677Z,2.87
2018-07-10T22:00:10.507Z,2.67
2018-07-10T22:02:39.399Z,3.93
2018-07-10T22:05:08.731Z,5.43
2018-07-10T22:07:37.263Z,3.07
2018-07-10T22:10:07.151Z,2.60
2018-07-10T22:12:39.518Z,2.97
2018-07-10T22:15:08.321Z,5.10
2018-07-10T22:17:37.732Z,3.00
2018-07-10T22:20:07.909Z,2.60
2018-07-10T22:22:36.698Z,2.70
2018-07-10T22:25:06.704Z,3.73
2018-07-10T22:27:38.455Z,3.20
2018-07-10T22:30:13.089Z,3.00
2018-07-10T22:32:47.265Z,5.43
2018-07-10T22:35:16.726Z,3.40
2018-07-10T22:37:45.488Z,2.93
2018-07-10T22:40:15.534Z,3.93
2018-07-10T22:42:44.288Z,3.33
2018-07-10T22:45:13.060Z,2.27
2018-07-10T22:47:42.308Z,3.33
2018-07-10T22:50:18.878Z,4.10
2018-07-10T22:52:56.872Z,3.47
2018-07-10T22:55:27.511Z,3.73
2018-07-10T22:58:03.065Z,4.60
2018-07-10T23:00:34.099Z,2.90
2018-07-10T23:03:17.950Z,4.23
2018-07-10T23:05:47.433Z,3.83
2018-07-10T23:08:17.553Z,6.37
2018-07-10T23:10:47.051Z,3.87
2018-07-10T23:13:17.383Z,2.73
2018-07-10T23:15:46.763Z,2.70
2018-07-10T23:18:16.092Z,5.80
2018-07-10T23:20:44.877Z,5.90
2018-07-10T23:23:13.944Z,4.43
2018-07-10T23:25:42.815Z,4.07
2018-07-10T23:28:11.591Z,3.97
2018-07-10T23:30:41.442Z,4.83
2018-07-10T23:33:12.432Z,3.17
2018-07-10T23:35:42.366Z,3.40
2018-07-10T23:38:21.112Z,3.20
2018-07-10T23:40:49.904Z,4.57
2018-07-10T23:43:19.273Z,2.90
2018-07-10T23:45:48.592Z,2.80
2018-07-10T23:48:17.997Z,3.00
2018-07-10T23:50:46.898Z,5.77
2018-07-10T23:53:29.593Z,3.43
2018-07-10T23:55:58.508Z,2.73
2018-07-10T23:58:27.304Z,3.93
